sensor_id;sensor_type;location;lat;lon;timestamp;P1;P2;P0
77892;PMS5003;67087;50.094;14.338;2023-08-31T00:00:28;5;5;
77892;PMS5003;67087;50.094;14.338;2023-08-31T00:02:53;5;5;
77892;PMS5003;67087;50.094;14.338;2023-08-31T00:05:18;4;4;
77892;PMS5003;67087;50.094;14.338;2023-08-31T00:07:43;5;5;
77892;PMS5003;67087;50.094;14.338;2023-08-31T00:10:08;3;3;
77892;PMS5003;67087;50.094;14.338;2023-08-31T00:12:33;6;6;
77892;PMS5003;67087;50.094;14.338;2023-08-31T00:14:58;5;4;
77892;PMS5003;67087;50.094;14.338;2023-08-31T00:17:23;5;5;
77892;PMS5003;67087;50.094;14.338;2023-08-31T00:19:48;4;4;
77892;PMS5003;67087;50.094;14.338;2023-08-31T00:22:13;6;5;
77892;PMS5003;67087;50.094;14.338;2023-08-31T00:24:38;4;4;
77892;PMS5003;67087;50.094;14.338;2023-08-31T00:27:04;4;4;
77892;PMS5003;67087;50.094;14.338;2023-08-31T00:29:28;4;4;
77892;PMS5003;67087;50.094;14.338;2023-08-31T00:31:53;4;4;
77892;PMS5003;67087;50.094;14.338;2023-08-31T00:34:19;6;6;
77892;PMS5003;67087;50.094;14.338;2023-08-31T00:36:44;5;5;
77892;PMS5003;67087;50.094;14.338;2023-08-31T00:39:09;5;5;
77892;PMS5003;67087;50.094;14.338;2023-08-31T00:41:34;3;3;
77892;PMS5003;67087;50.094;14.338;2023-08-31T00:43:59;5;5;
77892;PMS5003;67087;50.094;14.338;2023-08-31T00:46:24;5;5;
77892;PMS5003;67087;50.094;14.338;2023-08-31T00:48:49;4;4;
77892;PMS5003;67087;50.094;14.338;2023-08-31T00:51:14;5;5;
77892;PMS5003;67087;50.094;14.338;2023-08-31T00:53:39;5;5;
77892;PMS5003;67087;50.094;14.338;2023-08-31T00:56:04;5;5;
77892;PMS5003;67087;50.094;14.338;2023-08-31T00:58:29;3;3;
77892;PMS5003;67087;50.094;14.338;2023-08-31T01:00:58;4;4;
77892;PMS5003;67087;50.094;14.338;2023-08-31T01:03:22;3;3;
77892;PMS5003;67087;50.094;14.338;2023-08-31T01:05:45;6;6;
77892;PMS5003;67087;50.094;14.338;2023-08-31T01:08:14;4;4;
77892;PMS5003;67087;50.094;14.338;2023-08-31T01:10:36;4;4;
77892;PMS5003;67087;50.094;14.338;2023-08-31T01:13:00;6;5;
77892;PMS5003;67087;50.094;14.338;2023-08-31T01:15:25;5;4;
77892;PMS5003;67087;50.094;14.338;2023-08-31T01:17:50;4;4;
77892;PMS5003;67087;50.094;14.338;2023-08-31T01:20:16;4;4;
77892;PMS5003;67087;50.094;14.338;2023-08-31T01:22:42;5;5;
77892;PMS5003;67087;50.094;14.338;2023-08-31T01:25:05;5;5;
77892;PMS5003;67087;50.094;14.338;2023-08-31T01:27:30;4;4;
77892;PMS5003;67087;50.094;14.338;2023-08-31T01:29:55;5;5;
77892;PMS5003;67087;50.094;14.338;2023-08-31T01:32:20;5;5;
77892;PMS5003;67087;50.094;14.338;2023-08-31T01:34:45;6;6;
77892;PMS5003;67087;50.094;14.338;2023-08-31T01:37:14;5;5;
77892;PMS5003;67087;50.094;14.338;2023-08-31T01:39:37;6;6;
77892;PMS5003;67087;50.094;14.338;2023-08-31T01:42:01;5;5;
77892;PMS5003;67087;50.094;14.338;2023-08-31T01:44:25;4;4;
77892;PMS5003;67087;50.094;14.338;2023-08-31T01:46:51;5;5;
77892;PMS5003;67087;50.094;14.338;2023-08-31T01:49:16;3;3;
77892;PMS5003;67087;50.094;14.338;2023-08-31T01:51:41;5;5;
77892;PMS5003;67087;50.094;14.338;2023-08-31T01:54:06;5;5;
77892;PMS5003;67087;50.094;14.338;2023-08-31T01:56:31;5;5;
77892;PMS5003;67087;50.094;14.338;2023-08-31T01:58:56;5;5;
77892;PMS5003;67087;50.094;14.338;2023-08-31T02:01:21;4;4;
77892;PMS5003;67087;50.094;14.338;2023-08-31T02:03:46;5;5;
77892;PMS5003;67087;50.094;14.338;2023-08-31T02:06:11;7;7;
77892;PMS5003;67087;50.094;14.338;2023-08-31T02:08:36;5;5;
77892;PMS5003;67087;50.094;14.338;2023-08-31T02:11:01;4;4;
77892;PMS5003;67087;50.094;14.338;2023-08-31T02:13:26;5;5;
77892;PMS5003;67087;50.094;14.338;2023-08-31T02:15:51;4;4;
77892;PMS5003;67087;50.094;14.338;2023-08-31T02:18:16;4;4;
77892;PMS5003;67087;50.094;14.338;2023-08-31T02:20:42;5;5;
77892;PMS5003;67087;50.094;14.338;2023-08-31T02:23:07;5;5;
77892;PMS5003;67087;50.094;14.338;2023-08-31T02:25:32;4;4;
77892;PMS5003;67087;50.094;14.338;2023-08-31T02:27:57;6;6;
77892;PMS5003;67087;50.094;14.338;2023-08-31T02:30:22;3;3;
77892;PMS5003;67087;50.094;14.338;2023-08-31T02:32:47;3;3;
77892;PMS5003;67087;50.094;14.338;2023-08-31T02:35:12;5;5;
77892;PMS5003;67087;50.094;14.338;2023-08-31T02:37:37;5;5;
77892;PMS5003;67087;50.094;14.338;2023-08-31T02:40:03;7;6;
77892;PMS5003;67087;50.094;14.338;2023-08-31T02:42:27;5;5;
77892;PMS5003;67087;50.094;14.338;2023-08-31T02:44:52;5;5;
77892;PMS5003;67087;50.094;14.338;2023-08-31T02:47:17;4;4;
77892;PMS5003;67087;50.094;14.338;2023-08-31T02:49:42;5;5;
77892;PMS5003;67087;50.094;14.338;2023-08-31T02:52:07;5;5;
77892;PMS5003;67087;50.094;14.338;2023-08-31T02:54:32;5;5;
77892;PMS5003;67087;50.094;14.338;2023-08-31T02:56:58;5;5;
77892;PMS5003;67087;50.094;14.338;2023-08-31T02:59:23;6;6;
77892;PMS5003;67087;50.094;14.338;2023-08-31T03:01:48;4;4;
77892;PMS5003;67087;50.094;14.338;2023-08-31T03:04:13;3;3;
77892;PMS5003;67087;50.094;14.338;2023-08-31T03:06:38;6;6;
77892;PMS5003;67087;50.094;14.338;2023-08-31T03:09:03;4;4;
77892;PMS5003;67087;50.094;14.338;2023-08-31T03:11:28;4;4;
77892;PMS5003;67087;50.094;14.338;2023-08-31T03:13:53;5;5;
77892;PMS5003;67087;50.094;14.338;2023-08-31T03:16:18;4;4;
77892;PMS5003;67087;50.094;14.338;2023-08-31T03:18:43;4;4;
77892;PMS5003;67087;50.094;14.338;2023-08-31T03:21:08;4;4;
77892;PMS5003;67087;50.094;14.338;2023-08-31T03:23:33;5;4;
77892;PMS5003;67087;50.094;14.338;2023-08-31T03:25:58;4;4;
77892;PMS5003;67087;50.094;14.338;2023-08-31T03:28:23;5;4;
77892;PMS5003;67087;50.094;14.338;2023-08-31T03:33:14;5;4;
77892;PMS5003;67087;50.094;14.338;2023-08-31T03:35:39;6;6;
77892;PMS5003;67087;50.094;14.338;2023-08-31T03:38:04;6;5;
77892;PMS5003;67087;50.094;14.338;2023-08-31T03:40:29;6;5;
77892;PMS5003;67087;50.094;14.338;2023-08-31T03:42:54;5;5;
77892;PMS5003;67087;50.094;14.338;2023-08-31T03:45:19;4;4;
77892;PMS5003;67087;50.094;14.338;2023-08-31T03:47:44;3;3;
77892;PMS5003;67087;50.094;14.338;2023-08-31T03:50:09;4;4;
77892;PMS5003;67087;50.094;14.338;2023-08-31T03:52:34;6;5;
77892;PMS5003;67087;50.094;14.338;2023-08-31T03:54:59;4;4;
77892;PMS5003;67087;50.094;14.338;2023-08-31T03:57:24;5;5;
77892;PMS5003;67087;50.094;14.338;2023-08-31T03:59:49;4;4;
77892;PMS5003;67087;50.094;14.338;2023-08-31T04:02:14;4;4;
77892;PMS5003;67087;50.094;14.338;2023-08-31T04:04:40;4;4;
77892;PMS5003;67087;50.094;14.338;2023-08-31T04:07:05;6;6;
77892;PMS5003;67087;50.094;14.338;2023-08-31T04:09:30;7;5;
77892;PMS5003;67087;50.094;14.338;2023-08-31T04:11:55;4;4;
77892;PMS5003;67087;50.094;14.338;2023-08-31T04:14:20;5;5;
77892;PMS5003;67087;50.094;14.338;2023-08-31T04:16:45;3;3;
77892;PMS5003;67087;50.094;14.338;2023-08-31T04:19:10;4;4;
77892;PMS5003;67087;50.094;14.338;2023-08-31T04:21:35;4;4;
77892;PMS5003;67087;50.094;14.338;2023-08-31T04:24:00;4;4;
77892;PMS5003;67087;50.094;14.338;2023-08-31T04:26:25;6;5;
77892;PMS5003;67087;50.094;14.338;2023-08-31T04:28:50;6;6;
77892;PMS5003;67087;50.094;14.338;2023-08-31T04:31:15;6;6;
77892;PMS5003;67087;50.094;14.338;2023-08-31T04:33:40;4;4;
77892;PMS5003;67087;50.094;14.338;2023-08-31T04:36:05;5;4;
77892;PMS5003;67087;50.094;14.338;2023-08-31T04:38:30;7;7;
77892;PMS5003;67087;50.094;14.338;2023-08-31T04:40:57;5;5;
77892;PMS5003;67087;50.094;14.338;2023-08-31T04:43:20;5;5;
77892;PMS5003;67087;50.094;14.338;2023-08-31T04:45:45;5;5;
77892;PMS5003;67087;50.094;14.338;2023-08-31T04:48:10;5;5;
77892;PMS5003;67087;50.094;14.338;2023-08-31T04:50:35;7;7;
77892;PMS5003;67087;50.094;14.338;2023-08-31T04:53:01;4;4;
77892;PMS5003;67087;50.094;14.338;2023-08-31T04:55:26;5;5;
77892;PMS5003;67087;50.094;14.338;2023-08-31T04:57:51;6;6;
77892;PMS5003;67087;50.094;14.338;2023-08-31T05:00:16;6;6;
77892;PMS5003;67087;50.094;14.338;2023-08-31T05:02:41;5;5;
77892;PMS5003;67087;50.094;14.338;2023-08-31T05:05:06;5;4;
77892;PMS5003;67087;50.094;14.338;2023-08-31T05:07:31;6;6;
77892;PMS5003;67087;50.094;14.338;2023-08-31T05:09:56;5;5;
77892;PMS5003;67087;50.094;14.338;2023-08-31T05:12:21;5;5;
77892;PMS5003;67087;50.094;14.338;2023-08-31T05:14:46;5;5;
77892;PMS5003;67087;50.094;14.338;2023-08-31T05:17:11;5;5;
77892;PMS5003;67087;50.094;14.338;2023-08-31T05:19:36;3;3;
77892;PMS5003;67087;50.094;14.338;2023-08-31T05:22:01;5;5;
77892;PMS5003;67087;50.094;14.338;2023-08-31T05:24:26;5;5;
77892;PMS5003;67087;50.094;14.338;2023-08-31T05:26:51;6;5;
77892;PMS5003;67087;50.094;14.338;2023-08-31T05:29:16;4;4;
77892;PMS5003;67087;50.094;14.338;2023-08-31T05:31:42;5;4;
77892;PMS5003;67087;50.094;14.338;2023-08-31T05:34:08;6;5;
77892;PMS5003;67087;50.094;14.338;2023-08-31T05:36:32;4;4;
77892;PMS5003;67087;50.094;14.338;2023-08-31T05:38:57;5;5;
77892;PMS5003;67087;50.094;14.338;2023-08-31T05:41:22;4;4;
77892;PMS5003;67087;50.094;14.338;2023-08-31T05:43:47;5;5;
77892;PMS5003;67087;50.094;14.338;2023-08-31T05:46:12;5;5;
77892;PMS5003;67087;50.094;14.338;2023-08-31T05:48:37;4;4;
77892;PMS5003;67087;50.094;14.338;2023-08-31T05:51:02;3;3;
77892;PMS5003;67087;50.094;14.338;2023-08-31T05:53:27;4;4;
77892;PMS5003;67087;50.094;14.338;2023-08-31T05:55:54;5;5;
77892;PMS5003;67087;50.094;14.338;2023-08-31T05:58:17;5;4;
77892;PMS5003;67087;50.094;14.338;2023-08-31T06:00:42;4;4;
77892;PMS5003;67087;50.094;14.338;2023-08-31T06:03:07;5;5;
77892;PMS5003;67087;50.094;14.338;2023-08-31T06:05:32;6;5;
77892;PMS5003;67087;50.094;14.338;2023-08-31T06:07:57;6;5;
77892;PMS5003;67087;50.094;14.338;2023-08-31T06:10:23;3;3;
77892;PMS5003;67087;50.094;14.338;2023-08-31T06:12:48;5;5;
77892;PMS5003;67087;50.094;14.338;2023-08-31T06:15:12;4;4;
77892;PMS5003;67087;50.094;14.338;2023-08-31T06:17:38;3;3;
77892;PMS5003;67087;50.094;14.338;2023-08-31T06:20:03;3;3;
77892;PMS5003;67087;50.094;14.338;2023-08-31T06:22:28;4;4;
77892;PMS5003;67087;50.094;14.338;2023-08-31T06:24:53;5;5;
77892;PMS5003;67087;50.094;14.338;2023-08-31T06:27:18;5;4;
77892;PMS5003;67087;50.094;14.338;2023-08-31T06:29:43;5;4;
77892;PMS5003;67087;50.094;14.338;2023-08-31T06:32:08;4;4;
77892;PMS5003;67087;50.094;14.338;2023-08-31T06:34:33;4;4;
77892;PMS5003;67087;50.094;14.338;2023-08-31T06:36:58;3;3;
77892;PMS5003;67087;50.094;14.338;2023-08-31T06:39:23;5;4;
77892;PMS5003;67087;50.094;14.338;2023-08-31T06:41:48;4;4;
77892;PMS5003;67087;50.094;14.338;2023-08-31T06:44:13;4;4;
77892;PMS5003;67087;50.094;14.338;2023-08-31T06:46:38;4;4;
77892;PMS5003;67087;50.094;14.338;2023-08-31T06:49:03;2;2;
77892;PMS5003;67087;50.094;14.338;2023-08-31T06:51:28;2;2;
77892;PMS5003;67087;50.094;14.338;2023-08-31T06:53:53;12;10;
77892;PMS5003;67087;50.094;14.338;2023-08-31T06:56:19;7;7;
77892;PMS5003;67087;50.094;14.338;2023-08-31T06:58:44;6;6;
77892;PMS5003;67087;50.094;14.338;2023-08-31T07:01:09;5;4;
77892;PMS5003;67087;50.094;14.338;2023-08-31T07:03:34;6;5;
77892;PMS5003;67087;50.094;14.338;2023-08-31T07:05:59;6;6;
77892;PMS5003;67087;50.094;14.338;2023-08-31T07:08:24;5;5;
77892;PMS5003;67087;50.094;14.338;2023-08-31T07:10:49;5;4;
77892;PMS5003;67087;50.094;14.338;2023-08-31T07:13:15;7;4;
77892;PMS5003;67087;50.094;14.338;2023-08-31T07:15:40;5;5;
77892;PMS5003;67087;50.094;14.338;2023-08-31T07:18:05;3;3;
77892;PMS5003;67087;50.094;14.338;2023-08-31T07:20:30;3;3;
77892;PMS5003;67087;50.094;14.338;2023-08-31T07:22:55;4;4;
77892;PMS5003;67087;50.094;14.338;2023-08-31T07:25:20;2;2;
77892;PMS5003;67087;50.094;14.338;2023-08-31T07:27:45;3;3;
77892;PMS5003;67087;50.094;14.338;2023-08-31T07:30:10;4;4;
77892;PMS5003;67087;50.094;14.338;2023-08-31T07:32:35;3;3;
77892;PMS5003;67087;50.094;14.338;2023-08-31T07:35:00;3;3;
77892;PMS5003;67087;50.094;14.338;2023-08-31T07:37:25;1;1;
77892;PMS5003;67087;50.094;14.338;2023-08-31T07:39:50;2;2;
77892;PMS5003;67087;50.094;14.338;2023-08-31T07:42:16;3;3;
77892;PMS5003;67087;50.094;14.338;2023-08-31T07:44:41;3;2;
77892;PMS5003;67087;50.094;14.338;2023-08-31T07:47:06;3;3;
77892;PMS5003;67087;50.094;14.338;2023-08-31T07:49:31;3;3;
77892;PMS5003;67087;50.094;14.338;2023-08-31T07:51:56;5;4;
77892;PMS5003;67087;50.094;14.338;2023-08-31T07:54:21;3;3;
77892;PMS5003;67087;50.094;14.338;2023-08-31T07:56:46;5;4;
77892;PMS5003;67087;50.094;14.338;2023-08-31T07:59:11;3;3;
77892;PMS5003;67087;50.094;14.338;2023-08-31T08:01:36;4;4;
77892;PMS5003;67087;50.094;14.338;2023-08-31T08:04:02;3;3;
77892;PMS5003;67087;50.094;14.338;2023-08-31T08:06:27;4;4;
77892;PMS5003;67087;50.094;14.338;2023-08-31T08:08:52;4;4;
77892;PMS5003;67087;50.094;14.338;2023-08-31T08:11:17;4;4;
77892;PMS5003;67087;50.094;14.338;2023-08-31T08:13:42;3;3;
77892;PMS5003;67087;50.094;14.338;2023-08-31T08:16:07;4;4;
77892;PMS5003;67087;50.094;14.338;2023-08-31T08:18:32;3;3;
77892;PMS5003;67087;50.094;14.338;2023-08-31T08:20:57;3;3;
77892;PMS5003;67087;50.094;14.338;2023-08-31T08:23:22;4;4;
77892;PMS5003;67087;50.094;14.338;2023-08-31T08:25:48;4;4;
77892;PMS5003;67087;50.094;14.338;2023-08-31T08:28:13;6;4;
77892;PMS5003;67087;50.094;14.338;2023-08-31T08:30:38;4;4;
77892;PMS5003;67087;50.094;14.338;2023-08-31T08:33:03;3;3;
77892;PMS5003;67087;50.094;14.338;2023-08-31T08:35:28;4;3;
77892;PMS5003;67087;50.094;14.338;2023-08-31T08:37:53;4;4;
77892;PMS5003;67087;50.094;14.338;2023-08-31T08:40:18;3;3;
77892;PMS5003;67087;50.094;14.338;2023-08-31T08:42:43;3;3;
77892;PMS5003;67087;50.094;14.338;2023-08-31T08:45:13;3;3;
77892;PMS5003;67087;50.094;14.338;2023-08-31T08:47:34;3;3;
77892;PMS5003;67087;50.094;14.338;2023-08-31T08:49:59;4;3;
77892;PMS5003;67087;50.094;14.338;2023-08-31T08:52:24;3;3;
77892;PMS5003;67087;50.094;14.338;2023-08-31T08:54:50;4;4;
77892;PMS5003;67087;50.094;14.338;2023-08-31T08:57:15;3;3;
77892;PMS5003;67087;50.094;14.338;2023-08-31T08:59:40;3;3;
77892;PMS5003;67087;50.094;14.338;2023-08-31T09:02:05;3;3;
77892;PMS5003;67087;50.094;14.338;2023-08-31T09:04:30;3;3;
77892;PMS5003;67087;50.094;14.338;2023-08-31T09:06:55;2;2;
77892;PMS5003;67087;50.094;14.338;2023-08-31T09:09:20;5;5;
77892;PMS5003;67087;50.094;14.338;2023-08-31T09:11:46;4;4;
77892;PMS5003;67087;50.094;14.338;2023-08-31T09:14:14;3;3;
77892;PMS5003;67087;50.094;14.338;2023-08-31T09:16:36;4;4;
77892;PMS5003;67087;50.094;14.338;2023-08-31T09:19:01;3;3;
77892;PMS5003;67087;50.094;14.338;2023-08-31T09:23:56;2;2;
77892;PMS5003;67087;50.094;14.338;2023-08-31T09:26:16;4;3;
77892;PMS5003;67087;50.094;14.338;2023-08-31T09:28:41;3;3;
77892;PMS5003;67087;50.094;14.338;2023-08-31T09:31:07;3;3;
77892;PMS5003;67087;50.094;14.338;2023-08-31T09:33:34;4;3;
77892;PMS5003;67087;50.094;14.338;2023-08-31T09:35:57;3;3;
77892;PMS5003;67087;50.094;14.338;2023-08-31T09:38:22;3;3;
77892;PMS5003;67087;50.094;14.338;2023-08-31T09:40:47;4;4;
77892;PMS5003;67087;50.094;14.338;2023-08-31T09:45:37;5;5;
77892;PMS5003;67087;50.094;14.338;2023-08-31T09:48:03;5;5;
77892;PMS5003;67087;50.094;14.338;2023-08-31T09:50:28;4;3;
77892;PMS5003;67087;50.094;14.338;2023-08-31T09:52:53;6;5;
77892;PMS5003;67087;50.094;14.338;2023-08-31T09:55:18;4;4;
77892;PMS5003;67087;50.094;14.338;2023-08-31T09:57:43;2;2;
77892;PMS5003;67087;50.094;14.338;2023-08-31T10:00:09;4;4;
77892;PMS5003;67087;50.094;14.338;2023-08-31T10:02:33;3;3;
77892;PMS5003;67087;50.094;14.338;2023-08-31T10:04:59;3;3;
77892;PMS5003;67087;50.094;14.338;2023-08-31T10:07:24;4;4;
77892;PMS5003;67087;50.094;14.338;2023-08-31T10:09:49;4;4;
77892;PMS5003;67087;50.094;14.338;2023-08-31T10:12:14;5;5;
77892;PMS5003;67087;50.094;14.338;2023-08-31T10:14:39;4;4;
77892;PMS5003;67087;50.094;14.338;2023-08-31T10:17:04;3;3;
77892;PMS5003;67087;50.094;14.338;2023-08-31T10:19:29;3;3;
77892;PMS5003;67087;50.094;14.338;2023-08-31T10:21:54;3;3;
77892;PMS5003;67087;50.094;14.338;2023-08-31T10:24:23;5;5;
77892;PMS5003;67087;50.094;14.338;2023-08-31T10:26:45;3;3;
77892;PMS5003;67087;50.094;14.338;2023-08-31T10:31:35;3;3;
77892;PMS5003;67087;50.094;14.338;2023-08-31T10:34:00;3;3;
77892;PMS5003;67087;50.094;14.338;2023-08-31T10:41:18;4;4;
77892;PMS5003;67087;50.094;14.338;2023-08-31T10:43:44;4;4;
77892;PMS5003;67087;50.094;14.338;2023-08-31T10:50:57;5;5;
77892;PMS5003;67087;50.094;14.338;2023-08-31T10:55:50;5;5;
77892;PMS5003;67087;50.094;14.338;2023-08-31T10:58:12;6;5;
77892;PMS5003;67087;50.094;14.338;2023-08-31T11:03:03;4;4;
77892;PMS5003;67087;50.094;14.338;2023-08-31T11:05:27;4;4;
77892;PMS5003;67087;50.094;14.338;2023-08-31T11:07:52;3;3;
77892;PMS5003;67087;50.094;14.338;2023-08-31T11:10:18;3;3;
77892;PMS5003;67087;50.094;14.338;2023-08-31T11:12:43;1;1;
77892;PMS5003;67087;50.094;14.338;2023-08-31T11:15:10;3;3;
77892;PMS5003;67087;50.094;14.338;2023-08-31T11:17:33;2;2;
77892;PMS5003;67087;50.094;14.338;2023-08-31T11:19:58;1;1;
77892;PMS5003;67087;50.094;14.338;2023-08-31T11:22:23;1;1;
77892;PMS5003;67087;50.094;14.338;2023-08-31T11:24:48;2;2;
77892;PMS5003;67087;50.094;14.338;2023-08-31T11:27:13;3;3;
77892;PMS5003;67087;50.094;14.338;2023-08-31T11:29:42;4;4;
77892;PMS5003;67087;50.094;14.338;2023-08-31T11:32:04;4;4;
77892;PMS5003;67087;50.094;14.338;2023-08-31T11:34:29;3;3;
77892;PMS5003;67087;50.094;14.338;2023-08-31T11:36:54;4;4;
77892;PMS5003;67087;50.094;14.338;2023-08-31T11:39:19;3;3;
77892;PMS5003;67087;50.094;14.338;2023-08-31T11:41:44;4;4;
77892;PMS5003;67087;50.094;14.338;2023-08-31T11:44:09;3;3;
77892;PMS5003;67087;50.094;14.338;2023-08-31T11:46:35;2;2;
77892;PMS5003;67087;50.094;14.338;2023-08-31T11:49:00;2;2;
77892;PMS5003;67087;50.094;14.338;2023-08-31T11:51:25;4;4;
77892;PMS5003;67087;50.094;14.338;2023-08-31T11:53:50;3;3;
77892;PMS5003;67087;50.094;14.338;2023-08-31T11:56:15;3;2;
77892;PMS5003;67087;50.094;14.338;2023-08-31T11:58:40;4;4;
77892;PMS5003;67087;50.094;14.338;2023-08-31T12:01:05;3;3;
77892;PMS5003;67087;50.094;14.338;2023-08-31T12:03:41;3;3;
77892;PMS5003;67087;50.094;14.338;2023-08-31T12:05:56;2;2;
77892;PMS5003;67087;50.094;14.338;2023-08-31T12:08:25;4;4;
77892;PMS5003;67087;50.094;14.338;2023-08-31T12:10:46;2;2;
77892;PMS5003;67087;50.094;14.338;2023-08-31T12:13:12;4;4;
77892;PMS5003;67087;50.094;14.338;2023-08-31T12:15:37;3;3;
77892;PMS5003;67087;50.094;14.338;2023-08-31T12:18:06;4;4;
77892;PMS5003;67087;50.094;14.338;2023-08-31T12:20:27;4;4;
77892;PMS5003;67087;50.094;14.338;2023-08-31T12:22:52;3;3;
77892;PMS5003;67087;50.094;14.338;2023-08-31T12:25:19;3;3;
77892;PMS5003;67087;50.094;14.338;2023-08-31T12:27:42;4;4;
77892;PMS5003;67087;50.094;14.338;2023-08-31T12:30:08;4;4;
77892;PMS5003;67087;50.094;14.338;2023-08-31T12:32:32;5;5;
77892;PMS5003;67087;50.094;14.338;2023-08-31T12:34:58;3;3;
77892;PMS5003;67087;50.094;14.338;2023-08-31T12:37:23;4;4;
77892;PMS5003;67087;50.094;14.338;2023-08-31T12:39:48;4;4;
77892;PMS5003;67087;50.094;14.338;2023-08-31T12:42:13;3;3;
77892;PMS5003;67087;50.094;14.338;2023-08-31T12:44:38;4;4;
77892;PMS5003;67087;50.094;14.338;2023-08-31T12:47:03;3;3;
77892;PMS5003;67087;50.094;14.338;2023-08-31T12:49:28;3;3;
77892;PMS5003;67087;50.094;14.338;2023-08-31T12:51:53;4;3;
77892;PMS5003;67087;50.094;14.338;2023-08-31T12:54:18;3;3;
77892;PMS5003;67087;50.094;14.338;2023-08-31T12:56:44;4;4;
77892;PMS5003;67087;50.094;14.338;2023-08-31T12:59:09;4;3;
77892;PMS5003;67087;50.094;14.338;2023-08-31T13:01:34;4;4;
77892;PMS5003;67087;50.094;14.338;2023-08-31T13:03:59;5;5;
77892;PMS5003;67087;50.094;14.338;2023-08-31T13:06:24;5;4;
77892;PMS5003;67087;50.094;14.338;2023-08-31T13:08:49;4;4;
77892;PMS5003;67087;50.094;14.338;2023-08-31T13:11:14;2;2;
77892;PMS5003;67087;50.094;14.338;2023-08-31T13:13:40;3;3;
77892;PMS5003;67087;50.094;14.338;2023-08-31T13:16:05;3;3;
77892;PMS5003;67087;50.094;14.338;2023-08-31T13:18:30;3;3;
77892;PMS5003;67087;50.094;14.338;2023-08-31T13:20:55;2;2;
77892;PMS5003;67087;50.094;14.338;2023-08-31T13:23:20;3;3;
77892;PMS5003;67087;50.094;14.338;2023-08-31T13:25:45;4;4;
77892;PMS5003;67087;50.094;14.338;2023-08-31T13:28:10;4;4;
77892;PMS5003;67087;50.094;14.338;2023-08-31T13:30:35;4;4;
77892;PMS5003;67087;50.094;14.338;2023-08-31T13:33:01;3;3;
77892;PMS5003;67087;50.094;14.338;2023-08-31T13:35:25;3;3;
77892;PMS5003;67087;50.094;14.338;2023-08-31T13:37:51;3;3;
77892;PMS5003;67087;50.094;14.338;2023-08-31T13:40:16;4;4;
77892;PMS5003;67087;50.094;14.338;2023-08-31T13:45:07;2;2;
77892;PMS5003;67087;50.094;14.338;2023-08-31T13:47:31;4;4;
77892;PMS5003;67087;50.094;14.338;2023-08-31T13:49:56;4;4;
77892;PMS5003;67087;50.094;14.338;2023-08-31T13:52:21;3;3;
77892;PMS5003;67087;50.094;14.338;2023-08-31T13:54:46;1;1;
77892;PMS5003;67087;50.094;14.338;2023-08-31T13:57:11;3;3;
77892;PMS5003;67087;50.094;14.338;2023-08-31T13:59:36;5;5;
77892;PMS5003;67087;50.094;14.338;2023-08-31T14:02:02;79;74;
77892;PMS5003;67087;50.094;14.338;2023-08-31T14:04:27;56;54;
77892;PMS5003;67087;50.094;14.338;2023-08-31T14:06:52;64;63;
77892;PMS5003;67087;50.094;14.338;2023-08-31T14:09:18;170;166;
77892;PMS5003;67087;50.094;14.338;2023-08-31T14:11:44;133;130;
77892;PMS5003;67087;50.094;14.338;2023-08-31T14:14:10;81;80;
77892;PMS5003;67087;50.094;14.338;2023-08-31T14:16:35;74;72;
77892;PMS5003;67087;50.094;14.338;2023-08-31T14:19:00;44;41;
77892;PMS5003;67087;50.094;14.338;2023-08-31T14:21:26;24;21;
77892;PMS5003;67087;50.094;14.338;2023-08-31T14:23:51;13;13;
77892;PMS5003;67087;50.094;14.338;2023-08-31T14:26:16;13;12;
77892;PMS5003;67087;50.094;14.338;2023-08-31T14:28:41;7;7;
77892;PMS5003;67087;50.094;14.338;2023-08-31T14:31:06;8;6;
77892;PMS5003;67087;50.094;14.338;2023-08-31T14:33:31;7;7;
77892;PMS5003;67087;50.094;14.338;2023-08-31T14:35:56;8;7;
77892;PMS5003;67087;50.094;14.338;2023-08-31T14:38:22;9;9;
77892;PMS5003;67087;50.094;14.338;2023-08-31T14:40:47;11;9;
77892;PMS5003;67087;50.094;14.338;2023-08-31T14:43:12;12;12;
77892;PMS5003;67087;50.094;14.338;2023-08-31T14:45:37;5;5;
77892;PMS5003;67087;50.094;14.338;2023-08-31T14:48:03;7;7;
77892;PMS5003;67087;50.094;14.338;2023-08-31T14:50:28;5;5;
77892;PMS5003;67087;50.094;14.338;2023-08-31T14:52:53;5;5;
77892;PMS5003;67087;50.094;14.338;2023-08-31T14:55:18;5;5;
77892;PMS5003;67087;50.094;14.338;2023-08-31T14:57:43;5;5;
77892;PMS5003;67087;50.094;14.338;2023-08-31T15:00:09;4;4;
77892;PMS5003;67087;50.094;14.338;2023-08-31T15:02:33;4;4;
77892;PMS5003;67087;50.094;14.338;2023-08-31T15:04:58;4;4;
77892;PMS5003;67087;50.094;14.338;2023-08-31T15:07:23;4;4;
77892;PMS5003;67087;50.094;14.338;2023-08-31T15:09:48;4;3;
77892;PMS5003;67087;50.094;14.338;2023-08-31T15:12:14;4;3;
77892;PMS5003;67087;50.094;14.338;2023-08-31T15:14:39;3;3;
77892;PMS5003;67087;50.094;14.338;2023-08-31T15:17:04;4;4;
77892;PMS5003;67087;50.094;14.338;2023-08-31T15:19:29;5;4;
77892;PMS5003;67087;50.094;14.338;2023-08-31T15:21:54;4;4;
77892;PMS5003;67087;50.094;14.338;2023-08-31T15:24:19;3;3;
77892;PMS5003;67087;50.094;14.338;2023-08-31T15:26:44;4;4;
77892;PMS5003;67087;50.094;14.338;2023-08-31T15:29:09;2;2;
77892;PMS5003;67087;50.094;14.338;2023-08-31T15:31:34;4;4;
77892;PMS5003;67087;50.094;14.338;2023-08-31T15:33:59;3;3;
77892;PMS5003;67087;50.094;14.338;2023-08-31T15:36:24;4;4;
77892;PMS5003;67087;50.094;14.338;2023-08-31T15:38:49;4;3;
77892;PMS5003;67087;50.094;14.338;2023-08-31T15:41:15;2;2;
77892;PMS5003;67087;50.094;14.338;2023-08-31T15:43:40;3;3;
77892;PMS5003;67087;50.094;14.338;2023-08-31T15:46:05;1;1;
77892;PMS5003;67087;50.094;14.338;2023-08-31T15:48:30;3;3;
77892;PMS5003;67087;50.094;14.338;2023-08-31T15:50:55;4;4;
77892;PMS5003;67087;50.094;14.338;2023-08-31T15:53:20;2;2;
77892;PMS5003;67087;50.094;14.338;2023-08-31T15:55:46;3;3;
77892;PMS5003;67087;50.094;14.338;2023-08-31T15:58:11;3;3;
77892;PMS5003;67087;50.094;14.338;2023-08-31T16:00:36;3;3;
77892;PMS5003;67087;50.094;14.338;2023-08-31T16:03:01;4;4;
77892;PMS5003;67087;50.094;14.338;2023-08-31T16:05:26;3;3;
77892;PMS5003;67087;50.094;14.338;2023-08-31T16:07:51;3;3;
77892;PMS5003;67087;50.094;14.338;2023-08-31T16:10:16;3;3;
77892;PMS5003;67087;50.094;14.338;2023-08-31T16:12:41;3;3;
77892;PMS5003;67087;50.094;14.338;2023-08-31T16:15:07;3;3;
77892;PMS5003;67087;50.094;14.338;2023-08-31T16:17:31;3;3;
77892;PMS5003;67087;50.094;14.338;2023-08-31T16:19:56;4;4;
77892;PMS5003;67087;50.094;14.338;2023-08-31T16:22:21;4;3;
77892;PMS5003;67087;50.094;14.338;2023-08-31T16:24:47;35;33;
77892;PMS5003;67087;50.094;14.338;2023-08-31T16:27:12;44;41;
77892;PMS5003;67087;50.094;14.338;2023-08-31T16:29:37;22;20;
77892;PMS5003;67087;50.094;14.338;2023-08-31T16:32:02;10;10;
77892;PMS5003;67087;50.094;14.338;2023-08-31T16:34:27;7;6;
77892;PMS5003;67087;50.094;14.338;2023-08-31T16:36:52;7;7;
77892;PMS5003;67087;50.094;14.338;2023-08-31T16:39:18;5;4;
77892;PMS5003;67087;50.094;14.338;2023-08-31T16:41:43;4;4;
77892;PMS5003;67087;50.094;14.338;2023-08-31T16:44:08;6;5;